EKYT/AAL METAR and TAF weather

Enter ICAO airport designator
Station Type Date Time Source
EKYT METAR 2020/04/07 03:20 UTC NOAA

EKYT 070320Z 25009KT CAVOK 07/06 Q1023


Station Type Date Time Source
EKYT Decoded METAR 2020/04/07 03:20 UTC NOAA

Aalborg, Denmark (EKYT) 57-06N 009-51E 13M
Apr 06, 2020 - 11:20 PM EDT / 2020.04.07 0320 UTC
Wind: from the WSW (250 degrees) at 10 MPH (9 KT):0
Visibility: greater than 7 mile(s):0
Temperature: 44 F (7 C)
Dew Point: 42 F (6 C)
Relative Humidity: 93%
Pressure (altimeter): 30.21 in. Hg (1023 hPa)
ob: EKYT 070320Z 25009KT CAVOK 07/06 Q1023
cycle: 3

Station Type Date Time Source
EKYT TAF 2020/04/07 03:21 UTC NOAA

TAF EKYT 070211Z 0703/0803 29015KT 9999 FEW200
TEMPO 0703/0704 BKN008
BECMG 0715/0718 VRB03KT
BECMG 0722/0801 19008KT

Example: see airport list